sensor_id;sensor_type;location;lat;lon;timestamp;P1;durP1;ratioP1;P2;durP2;ratioP2
69369;SDS011;56530;42.640;23.372;2023-04-24T00:00:11;10.00;;;4.47;;
69369;SDS011;56530;42.640;23.372;2023-04-24T00:02:40;10.32;;;4.35;;
69369;SDS011;56530;42.640;23.372;2023-04-24T00:05:06;5.57;;;3.75;;
69369;SDS011;56530;42.640;23.372;2023-04-24T00:07:32;4.85;;;4.25;;
69369;SDS011;56530;42.640;23.372;2023-04-24T00:09:58;9.15;;;4.00;;
69369;SDS011;56530;42.640;23.372;2023-04-24T00:12:24;6.20;;;4.88;;
69369;SDS011;56530;42.640;23.372;2023-04-24T00:14:49;7.85;;;4.60;;
69369;SDS011;56530;42.640;23.372;2023-04-24T00:17:15;4.88;;;4.20;;
69369;SDS011;56530;42.640;23.372;2023-04-24T00:19:40;5.38;;;4.38;;
69369;SDS011;56530;42.640;23.372;2023-04-24T00:22:06;10.13;;;4.28;;
69369;SDS011;56530;42.640;23.372;2023-04-24T00:24:31;7.05;;;4.30;;
69369;SDS011;56530;42.640;23.372;2023-04-24T00:26:56;6.82;;;4.03;;
69369;SDS011;56530;42.640;23.372;2023-04-24T00:29:22;5.55;;;4.47;;
69369;SDS011;56530;42.640;23.372;2023-04-24T00:31:47;8.32;;;4.55;;
69369;SDS011;56530;42.640;23.372;2023-04-24T00:34:13;5.15;;;4.65;;
69369;SDS011;56530;42.640;23.372;2023-04-24T00:36:38;10.50;;;4.57;;
69369;SDS011;56530;42.640;23.372;2023-04-24T00:39:04;6.18;;;4.35;;
69369;SDS011;56530;42.640;23.372;2023-04-24T00:41:30;6.53;;;4.88;;
69369;SDS011;56530;42.640;23.372;2023-04-24T00:43:55;4.75;;;4.22;;
69369;SDS011;56530;42.640;23.372;2023-04-24T00:46:21;11.68;;;4.82;;
69369;SDS011;56530;42.640;23.372;2023-04-24T00:48:46;9.15;;;5.15;;
69369;SDS011;56530;42.640;23.372;2023-04-24T00:51:12;6.85;;;4.50;;
69369;SDS011;56530;42.640;23.372;2023-04-24T00:53:37;4.50;;;4.05;;
69369;SDS011;56530;42.640;23.372;2023-04-24T00:56:03;8.75;;;5.30;;
69369;SDS011;56530;42.640;23.372;2023-04-24T00:58:30;7.40;;;4.68;;
69369;SDS011;56530;42.640;23.372;2023-04-24T01:00:56;6.32;;;4.13;;
69369;SDS011;56530;42.640;23.372;2023-04-24T01:03:24;6.25;;;4.50;;
69369;SDS011;56530;42.640;23.372;2023-04-24T01:05:51;11.73;;;4.65;;
69369;SDS011;56530;42.640;23.372;2023-04-24T01:08:17;6.90;;;4.68;;
69369;SDS011;56530;42.640;23.372;2023-04-24T01:10:43;8.77;;;5.25;;
69369;SDS011;56530;42.640;23.372;2023-04-24T01:13:09;7.18;;;4.25;;
69369;SDS011;56530;42.640;23.372;2023-04-24T01:15:35;6.82;;;5.10;;
69369;SDS011;56530;42.640;23.372;2023-04-24T01:18:01;6.05;;;5.13;;
69369;SDS011;56530;42.640;23.372;2023-04-24T01:20:26;8.35;;;5.53;;
69369;SDS011;56530;42.640;23.372;2023-04-24T01:22:52;8.13;;;4.75;;
69369;SDS011;56530;42.640;23.372;2023-04-24T01:25:19;9.40;;;4.90;;
69369;SDS011;56530;42.640;23.372;2023-04-24T01:27:45;6.72;;;5.38;;
69369;SDS011;56530;42.640;23.372;2023-04-24T01:30:11;6.60;;;5.50;;
69369;SDS011;56530;42.640;23.372;2023-04-24T01:32:37;9.45;;;4.32;;
69369;SDS011;56530;42.640;23.372;2023-04-24T01:35:02;5.53;;;4.93;;
69369;SDS011;56530;42.640;23.372;2023-04-24T01:37:28;8.40;;;4.93;;
69369;SDS011;56530;42.640;23.372;2023-04-24T01:39:54;7.88;;;5.05;;
69369;SDS011;56530;42.640;23.372;2023-04-24T01:42:19;12.18;;;5.50;;
69369;SDS011;56530;42.640;23.372;2023-04-24T01:44:45;8.30;;;5.22;;
69369;SDS011;56530;42.640;23.372;2023-04-24T01:47:10;5.57;;;5.00;;
69369;SDS011;56530;42.640;23.372;2023-04-24T01:49:37;11.13;;;5.65;;
69369;SDS011;56530;42.640;23.372;2023-04-24T01:52:03;10.43;;;6.15;;
69369;SDS011;56530;42.640;23.372;2023-04-24T01:54:28;7.57;;;4.90;;
69369;SDS011;56530;42.640;23.372;2023-04-24T01:56:54;9.57;;;4.88;;
69369;SDS011;56530;42.640;23.372;2023-04-24T01:59:19;5.47;;;4.95;;
69369;SDS011;56530;42.640;23.372;2023-04-24T02:01:45;8.32;;;5.15;;
69369;SDS011;56530;42.640;23.372;2023-04-24T02:04:11;10.57;;;6.13;;
69369;SDS011;56530;42.640;23.372;2023-04-24T02:06:36;6.53;;;4.95;;
69369;SDS011;56530;42.640;23.372;2023-04-24T02:09:02;8.20;;;5.65;;
69369;SDS011;56530;42.640;23.372;2023-04-24T02:11:28;6.97;;;5.47;;
69369;SDS011;56530;42.640;23.372;2023-04-24T02:13:53;6.85;;;5.10;;
69369;SDS011;56530;42.640;23.372;2023-04-24T02:16:19;5.82;;;5.32;;
69369;SDS011;56530;42.640;23.372;2023-04-24T02:18:44;5.70;;;5.05;;
69369;SDS011;56530;42.640;23.372;2023-04-24T02:21:10;7.43;;;5.47;;
69369;SDS011;56530;42.640;23.372;2023-04-24T02:23:35;7.78;;;5.65;;
69369;SDS011;56530;42.640;23.372;2023-04-24T02:26:01;7.32;;;6.18;;
69369;SDS011;56530;42.640;23.372;2023-04-24T02:28:26;8.57;;;5.18;;
69369;SDS011;56530;42.640;23.372;2023-04-24T02:30:52;13.00;;;5.43;;
69369;SDS011;56530;42.640;23.372;2023-04-24T02:33:17;8.45;;;5.65;;
69369;SDS011;56530;42.640;23.372;2023-04-24T02:35:42;7.10;;;6.25;;
69369;SDS011;56530;42.640;23.372;2023-04-24T02:38:08;7.30;;;6.43;;
69369;SDS011;56530;42.640;23.372;2023-04-24T02:40:33;7.40;;;5.55;;
69369;SDS011;56530;42.640;23.372;2023-04-24T02:42:59;6.35;;;5.38;;
69369;SDS011;56530;42.640;23.372;2023-04-24T02:45:24;8.13;;;5.72;;
69369;SDS011;56530;42.640;23.372;2023-04-24T02:47:49;6.68;;;5.50;;
69369;SDS011;56530;42.640;23.372;2023-04-24T02:50:15;6.70;;;4.65;;
69369;SDS011;56530;42.640;23.372;2023-04-24T02:52:40;12.00;;;5.65;;
69369;SDS011;56530;42.640;23.372;2023-04-24T02:55:06;8.55;;;5.30;;
69369;SDS011;56530;42.640;23.372;2023-04-24T02:57:33;7.72;;;5.72;;
69369;SDS011;56530;42.640;23.372;2023-04-24T02:59:58;12.55;;;5.90;;
69369;SDS011;56530;42.640;23.372;2023-04-24T03:02:24;10.38;;;4.93;;
69369;SDS011;56530;42.640;23.372;2023-04-24T03:04:50;9.90;;;4.90;;
69369;SDS011;56530;42.640;23.372;2023-04-24T03:07:15;9.93;;;5.57;;
69369;SDS011;56530;42.640;23.372;2023-04-24T03:09:41;8.55;;;5.18;;
69369;SDS011;56530;42.640;23.372;2023-04-24T03:12:06;10.68;;;5.72;;
69369;SDS011;56530;42.640;23.372;2023-04-24T03:14:32;8.60;;;5.45;;
69369;SDS011;56530;42.640;23.372;2023-04-24T03:16:57;14.50;;;6.15;;
69369;SDS011;56530;42.640;23.372;2023-04-24T03:19:23;5.60;;;5.10;;
69369;SDS011;56530;42.640;23.372;2023-04-24T03:21:48;9.30;;;5.32;;
69369;SDS011;56530;42.640;23.372;2023-04-24T03:24:14;10.10;;;6.10;;
69369;SDS011;56530;42.640;23.372;2023-04-24T03:26:40;7.78;;;5.78;;
69369;SDS011;56530;42.640;23.372;2023-04-24T03:29:06;12.65;;;5.43;;
69369;SDS011;56530;42.640;23.372;2023-04-24T03:31:31;9.13;;;5.07;;
69369;SDS011;56530;42.640;23.372;2023-04-24T03:33:57;8.35;;;5.75;;
69369;SDS011;56530;42.640;23.372;2023-04-24T03:36:22;26.30;;;15.85;;
69369;SDS011;56530;42.640;23.372;2023-04-24T03:38:48;34.30;;;25.55;;
69369;SDS011;56530;42.640;23.372;2023-04-24T03:41:13;12.20;;;9.63;;
69369;SDS011;56530;42.640;23.372;2023-04-24T03:43:38;9.30;;;6.13;;
69369;SDS011;56530;42.640;23.372;2023-04-24T03:46:04;7.20;;;5.93;;
69369;SDS011;56530;42.640;23.372;2023-04-24T03:48:30;7.53;;;5.70;;
69369;SDS011;56530;42.640;23.372;2023-04-24T03:50:55;12.85;;;6.25;;
69369;SDS011;56530;42.640;23.372;2023-04-24T03:53:21;12.07;;;6.18;;
69369;SDS011;56530;42.640;23.372;2023-04-24T03:55:46;12.32;;;7.68;;
69369;SDS011;56530;42.640;23.372;2023-04-24T03:58:12;11.35;;;6.72;;
69369;SDS011;56530;42.640;23.372;2023-04-24T04:00:39;11.60;;;5.93;;
69369;SDS011;56530;42.640;23.372;2023-04-24T04:03:05;7.80;;;6.22;;
69369;SDS011;56530;42.640;23.372;2023-04-24T04:05:30;15.70;;;9.88;;
69369;SDS011;56530;42.640;23.372;2023-04-24T04:07:56;21.45;;;14.43;;
69369;SDS011;56530;42.640;23.372;2023-04-24T04:10:21;12.85;;;8.65;;
69369;SDS011;56530;42.640;23.372;2023-04-24T04:12:47;12.07;;;5.75;;
69369;SDS011;56530;42.640;23.372;2023-04-24T04:15:12;6.47;;;5.80;;
69369;SDS011;56530;42.640;23.372;2023-04-24T04:17:37;10.02;;;6.50;;
69369;SDS011;56530;42.640;23.372;2023-04-24T04:20:03;6.60;;;5.82;;
69369;SDS011;56530;42.640;23.372;2023-04-24T04:22:34;8.05;;;5.72;;
69369;SDS011;56530;42.640;23.372;2023-04-24T04:24:59;12.80;;;5.70;;
69369;SDS011;56530;42.640;23.372;2023-04-24T04:27:24;8.95;;;6.03;;
69369;SDS011;56530;42.640;23.372;2023-04-24T04:29:50;10.85;;;6.97;;
69369;SDS011;56530;42.640;23.372;2023-04-24T04:32:15;12.20;;;6.45;;
69369;SDS011;56530;42.640;23.372;2023-04-24T04:34:41;7.18;;;6.38;;
69369;SDS011;56530;42.640;23.372;2023-04-24T04:37:07;8.15;;;7.07;;
69369;SDS011;56530;42.640;23.372;2023-04-24T04:39:32;8.95;;;7.75;;
69369;SDS011;56530;42.640;23.372;2023-04-24T04:41:57;10.48;;;7.07;;
69369;SDS011;56530;42.640;23.372;2023-04-24T04:44:23;12.15;;;6.65;;
69369;SDS011;56530;42.640;23.372;2023-04-24T04:46:49;10.23;;;7.20;;
69369;SDS011;56530;42.640;23.372;2023-04-24T04:49:15;12.00;;;7.38;;
69369;SDS011;56530;42.640;23.372;2023-04-24T04:51:41;10.55;;;6.95;;
69369;SDS011;56530;42.640;23.372;2023-04-24T04:54:07;10.15;;;7.60;;
69369;SDS011;56530;42.640;23.372;2023-04-24T04:56:32;11.82;;;7.22;;
69369;SDS011;56530;42.640;23.372;2023-04-24T04:58:58;12.45;;;7.55;;
69369;SDS011;56530;42.640;23.372;2023-04-24T05:01:24;11.35;;;7.25;;
69369;SDS011;56530;42.640;23.372;2023-04-24T05:03:52;8.73;;;6.43;;
69369;SDS011;56530;42.640;23.372;2023-04-24T05:06:18;7.78;;;6.55;;
69369;SDS011;56530;42.640;23.372;2023-04-24T05:08:43;8.88;;;6.72;;
69369;SDS011;56530;42.640;23.372;2023-04-24T05:11:09;10.65;;;6.30;;
69369;SDS011;56530;42.640;23.372;2023-04-24T05:13:34;18.13;;;7.50;;
69369;SDS011;56530;42.640;23.372;2023-04-24T05:16:00;12.43;;;6.70;;
69369;SDS011;56530;42.640;23.372;2023-04-24T05:18:25;9.80;;;6.50;;
69369;SDS011;56530;42.640;23.372;2023-04-24T05:20:51;14.60;;;7.03;;
69369;SDS011;56530;42.640;23.372;2023-04-24T05:23:16;12.25;;;6.38;;
69369;SDS011;56530;42.640;23.372;2023-04-24T05:25:41;12.70;;;6.60;;
69369;SDS011;56530;42.640;23.372;2023-04-24T05:28:07;10.88;;;6.90;;
69369;SDS011;56530;42.640;23.372;2023-04-24T05:30:33;11.80;;;7.15;;
69369;SDS011;56530;42.640;23.372;2023-04-24T05:32:58;19.70;;;6.55;;
69369;SDS011;56530;42.640;23.372;2023-04-24T05:35:24;14.18;;;6.93;;
69369;SDS011;56530;42.640;23.372;2023-04-24T05:37:50;14.52;;;8.82;;
69369;SDS011;56530;42.640;23.372;2023-04-24T05:40:15;14.85;;;7.20;;
69369;SDS011;56530;42.640;23.372;2023-04-24T05:42:40;16.55;;;6.38;;
69369;SDS011;56530;42.640;23.372;2023-04-24T05:45:06;9.82;;;6.20;;
69369;SDS011;56530;42.640;23.372;2023-04-24T05:47:32;13.73;;;6.38;;
69369;SDS011;56530;42.640;23.372;2023-04-24T05:49:57;8.93;;;5.50;;
69369;SDS011;56530;42.640;23.372;2023-04-24T05:52:23;16.83;;;5.90;;
69369;SDS011;56530;42.640;23.372;2023-04-24T05:54:48;9.45;;;5.70;;
69369;SDS011;56530;42.640;23.372;2023-04-24T05:57:13;11.57;;;6.32;;
69369;SDS011;56530;42.640;23.372;2023-04-24T05:59:40;11.18;;;5.25;;
69369;SDS011;56530;42.640;23.372;2023-04-24T06:02:05;14.30;;;5.82;;
69369;SDS011;56530;42.640;23.372;2023-04-24T06:04:31;14.13;;;6.75;;
69369;SDS011;56530;42.640;23.372;2023-04-24T06:06:57;12.98;;;5.78;;
69369;SDS011;56530;42.640;23.372;2023-04-24T06:09:22;10.00;;;6.32;;
69369;SDS011;56530;42.640;23.372;2023-04-24T06:11:48;9.77;;;6.70;;
69369;SDS011;56530;42.640;23.372;2023-04-24T06:14:14;13.00;;;6.57;;
69369;SDS011;56530;42.640;23.372;2023-04-24T06:16:41;8.15;;;5.65;;
69369;SDS011;56530;42.640;23.372;2023-04-24T06:19:07;7.82;;;5.68;;
69369;SDS011;56530;42.640;23.372;2023-04-24T06:21:32;13.98;;;6.35;;
69369;SDS011;56530;42.640;23.372;2023-04-24T06:23:57;13.25;;;6.97;;
69369;SDS011;56530;42.640;23.372;2023-04-24T06:26:23;14.48;;;6.68;;
69369;SDS011;56530;42.640;23.372;2023-04-24T06:28:50;9.93;;;6.20;;
69369;SDS011;56530;42.640;23.372;2023-04-24T06:31:16;14.30;;;6.57;;
69369;SDS011;56530;42.640;23.372;2023-04-24T06:33:41;9.02;;;5.85;;
69369;SDS011;56530;42.640;23.372;2023-04-24T06:36:07;19.92;;;7.18;;
69369;SDS011;56530;42.640;23.372;2023-04-24T06:38:33;11.95;;;5.97;;
69369;SDS011;56530;42.640;23.372;2023-04-24T06:40:59;12.15;;;7.10;;
69369;SDS011;56530;42.640;23.372;2023-04-24T06:43:24;13.33;;;7.03;;
69369;SDS011;56530;42.640;23.372;2023-04-24T06:45:50;11.75;;;6.95;;
69369;SDS011;56530;42.640;23.372;2023-04-24T06:48:15;12.68;;;6.20;;
69369;SDS011;56530;42.640;23.372;2023-04-24T06:50:41;14.73;;;6.82;;
69369;SDS011;56530;42.640;23.372;2023-04-24T06:53:06;16.85;;;7.28;;
69369;SDS011;56530;42.640;23.372;2023-04-24T06:55:31;9.60;;;6.15;;
69369;SDS011;56530;42.640;23.372;2023-04-24T06:57:57;14.75;;;7.50;;
69369;SDS011;56530;42.640;23.372;2023-04-24T07:00:22;19.13;;;7.82;;
69369;SDS011;56530;42.640;23.372;2023-04-24T07:02:49;11.52;;;7.10;;
69369;SDS011;56530;42.640;23.372;2023-04-24T07:05:14;15.25;;;7.93;;
69369;SDS011;56530;42.640;23.372;2023-04-24T07:07:40;10.85;;;6.68;;
69369;SDS011;56530;42.640;23.372;2023-04-24T07:10:06;9.38;;;6.80;;
69369;SDS011;56530;42.640;23.372;2023-04-24T07:12:33;13.65;;;7.70;;
69369;SDS011;56530;42.640;23.372;2023-04-24T07:14:59;12.55;;;7.90;;
69369;SDS011;56530;42.640;23.372;2023-04-24T07:17:25;14.18;;;7.05;;
69369;SDS011;56530;42.640;23.372;2023-04-24T07:19:50;12.85;;;7.20;;
69369;SDS011;56530;42.640;23.372;2023-04-24T07:22:16;11.50;;;8.10;;
69369;SDS011;56530;42.640;23.372;2023-04-24T07:24:43;12.13;;;8.48;;
69369;SDS011;56530;42.640;23.372;2023-04-24T07:27:09;11.68;;;7.28;;
69369;SDS011;56530;42.640;23.372;2023-04-24T07:29:34;11.05;;;7.72;;
69369;SDS011;56530;42.640;23.372;2023-04-24T07:32:00;10.18;;;7.13;;
69369;SDS011;56530;42.640;23.372;2023-04-24T07:34:26;13.77;;;8.00;;
69369;SDS011;56530;42.640;23.372;2023-04-24T07:36:51;11.27;;;7.32;;
69369;SDS011;56530;42.640;23.372;2023-04-24T07:39:16;12.35;;;6.28;;
69369;SDS011;56530;42.640;23.372;2023-04-24T07:41:42;11.55;;;7.63;;
69369;SDS011;56530;42.640;23.372;2023-04-24T07:44:07;11.20;;;6.88;;
69369;SDS011;56530;42.640;23.372;2023-04-24T07:46:33;10.93;;;6.78;;
69369;SDS011;56530;42.640;23.372;2023-04-24T07:48:58;9.57;;;6.35;;
69369;SDS011;56530;42.640;23.372;2023-04-24T07:51:26;12.27;;;7.35;;
69369;SDS011;56530;42.640;23.372;2023-04-24T07:53:52;11.07;;;5.90;;
69369;SDS011;56530;42.640;23.372;2023-04-24T07:56:19;11.68;;;6.70;;
69369;SDS011;56530;42.640;23.372;2023-04-24T07:58:45;12.60;;;7.57;;
69369;SDS011;56530;42.640;23.372;2023-04-24T08:01:11;9.82;;;6.32;;
69369;SDS011;56530;42.640;23.372;2023-04-24T08:03:36;6.25;;;5.07;;
69369;SDS011;56530;42.640;23.372;2023-04-24T08:06:01;6.32;;;5.38;;
69369;SDS011;56530;42.640;23.372;2023-04-24T08:08:27;9.57;;;5.70;;
69369;SDS011;56530;42.640;23.372;2023-04-24T08:10:52;7.30;;;5.55;;
69369;SDS011;56530;42.640;23.372;2023-04-24T08:13:18;7.78;;;6.22;;
69369;SDS011;56530;42.640;23.372;2023-04-24T08:15:43;10.60;;;6.15;;
69369;SDS011;56530;42.640;23.372;2023-04-24T08:18:08;15.13;;;8.18;;
69369;SDS011;56530;42.640;23.372;2023-04-24T08:20:36;8.73;;;6.65;;
69369;SDS011;56530;42.640;23.372;2023-04-24T08:23:02;13.57;;;7.18;;
69369;SDS011;56530;42.640;23.372;2023-04-24T08:25:27;15.20;;;6.65;;
69369;SDS011;56530;42.640;23.372;2023-04-24T08:27:53;11.27;;;6.80;;
69369;SDS011;56530;42.640;23.372;2023-04-24T08:30:19;8.65;;;5.78;;
69369;SDS011;56530;42.640;23.372;2023-04-24T08:32:45;13.80;;;6.47;;
69369;SDS011;56530;42.640;23.372;2023-04-24T08:35:10;7.95;;;5.55;;
69369;SDS011;56530;42.640;23.372;2023-04-24T08:37:36;8.63;;;6.13;;
69369;SDS011;56530;42.640;23.372;2023-04-24T08:40:05;9.25;;;5.32;;
69369;SDS011;56530;42.640;23.372;2023-04-24T08:42:35;13.40;;;5.57;;
69369;SDS011;56530;42.640;23.372;2023-04-24T08:45:02;12.15;;;5.75;;
69369;SDS011;56530;42.640;23.372;2023-04-24T08:47:28;9.02;;;6.05;;
69369;SDS011;56530;42.640;23.372;2023-04-24T08:49:54;12.70;;;6.35;;
69369;SDS011;56530;42.640;23.372;2023-04-24T08:52:19;12.77;;;5.22;;
69369;SDS011;56530;42.640;23.372;2023-04-24T08:54:46;6.32;;;5.55;;
69369;SDS011;56530;42.640;23.372;2023-04-24T08:57:12;12.13;;;6.35;;
69369;SDS011;56530;42.640;23.372;2023-04-24T08:59:39;7.53;;;5.20;;
69369;SDS011;56530;42.640;23.372;2023-04-24T09:02:04;9.35;;;5.57;;
69369;SDS011;56530;42.640;23.372;2023-04-24T09:04:30;7.75;;;5.13;;
69369;SDS011;56530;42.640;23.372;2023-04-24T09:06:56;9.70;;;5.60;;
69369;SDS011;56530;42.640;23.372;2023-04-24T09:09:22;9.70;;;5.97;;
69369;SDS011;56530;42.640;23.372;2023-04-24T09:11:49;7.95;;;4.45;;
69369;SDS011;56530;42.640;23.372;2023-04-24T09:14:15;8.30;;;5.55;;
69369;SDS011;56530;42.640;23.372;2023-04-24T09:16:40;8.98;;;5.20;;
69369;SDS011;56530;42.640;23.372;2023-04-24T09:19:06;7.28;;;5.60;;
69369;SDS011;56530;42.640;23.372;2023-04-24T09:21:32;7.15;;;5.00;;
69369;SDS011;56530;42.640;23.372;2023-04-24T09:24:08;5.95;;;4.82;;
69369;SDS011;56530;42.640;23.372;2023-04-24T09:26:42;6.22;;;4.38;;
69369;SDS011;56530;42.640;23.372;2023-04-24T09:29:13;9.48;;;4.78;;
69369;SDS011;56530;42.640;23.372;2023-04-24T09:31:42;6.15;;;5.47;;
69369;SDS011;56530;42.640;23.372;2023-04-24T09:34:07;7.80;;;4.53;;
69369;SDS011;56530;42.640;23.372;2023-04-24T09:36:37;10.05;;;5.43;;
69369;SDS011;56530;42.640;23.372;2023-04-24T09:39:06;8.57;;;5.18;;
69369;SDS011;56530;42.640;23.372;2023-04-24T09:41:55;5.78;;;5.25;;
69369;SDS011;56530;42.640;23.372;2023-04-24T09:44:24;9.50;;;4.90;;
69369;SDS011;56530;42.640;23.372;2023-04-24T09:46:53;7.13;;;4.85;;
69369;SDS011;56530;42.640;23.372;2023-04-24T09:49:23;6.93;;;5.15;;
69369;SDS011;56530;42.640;23.372;2023-04-24T09:52:10;8.35;;;5.03;;
69369;SDS011;56530;42.640;23.372;2023-04-24T09:54:36;17.73;;;5.18;;
69369;SDS011;56530;42.640;23.372;2023-04-24T09:57:02;9.65;;;5.18;;
69369;SDS011;56530;42.640;23.372;2023-04-24T09:59:28;8.68;;;4.22;;
69369;SDS011;56530;42.640;23.372;2023-04-24T10:01:54;7.68;;;4.72;;
69369;SDS011;56530;42.640;23.372;2023-04-24T10:06:47;9.30;;;5.30;;
69369;SDS011;56530;42.640;23.372;2023-04-24T10:09:17;6.20;;;4.72;;
69369;SDS011;56530;42.640;23.372;2023-04-24T10:11:44;7.50;;;5.40;;
69369;SDS011;56530;42.640;23.372;2023-04-24T10:14:12;6.15;;;4.68;;
69369;SDS011;56530;42.640;23.372;2023-04-24T10:16:45;8.95;;;4.28;;
69369;SDS011;56530;42.640;23.372;2023-04-24T10:19:11;11.60;;;4.90;;
69369;SDS011;56530;42.640;23.372;2023-04-24T10:21:38;9.80;;;5.40;;
69369;SDS011;56530;42.640;23.372;2023-04-24T10:24:07;5.63;;;4.35;;
69369;SDS011;56530;42.640;23.372;2023-04-24T10:26:35;9.52;;;3.88;;
69369;SDS011;56530;42.640;23.372;2023-04-24T10:29:02;9.75;;;3.97;;
69369;SDS011;56530;42.640;23.372;2023-04-24T10:31:31;6.68;;;4.20;;
69369;SDS011;56530;42.640;23.372;2023-04-24T10:33:58;6.93;;;4.32;;
69369;SDS011;56530;42.640;23.372;2023-04-24T10:36:25;8.73;;;4.18;;
69369;SDS011;56530;42.640;23.372;2023-04-24T10:38:53;4.78;;;4.38;;
69369;SDS011;56530;42.640;23.372;2023-04-24T10:41:20;8.27;;;4.35;;
69369;SDS011;56530;42.640;23.372;2023-04-24T10:43:48;5.70;;;4.05;;
69369;SDS011;56530;42.640;23.372;2023-04-24T10:46:19;10.98;;;6.32;;
69369;SDS011;56530;42.640;23.372;2023-04-24T10:48:53;9.65;;;4.72;;
69369;SDS011;56530;42.640;23.372;2023-04-24T10:51:21;5.35;;;4.43;;
69369;SDS011;56530;42.640;23.372;2023-04-24T10:53:47;5.80;;;3.90;;
69369;SDS011;56530;42.640;23.372;2023-04-24T10:56:15;6.55;;;3.78;;
69369;SDS011;56530;42.640;23.372;2023-04-24T10:58:41;4.20;;;3.80;;
69369;SDS011;56530;42.640;23.372;2023-04-24T11:04:06;5.38;;;3.78;;
69369;SDS011;56530;42.640;23.372;2023-04-24T11:06:35;5.05;;;4.55;;
69369;SDS011;56530;42.640;23.372;2023-04-24T11:09:05;9.05;;;4.18;;
69369;SDS011;56530;42.640;23.372;2023-04-24T11:11:31;5.97;;;4.97;;
69369;SDS011;56530;42.640;23.372;2023-04-24T11:16:26;7.18;;;4.32;;
69369;SDS011;56530;42.640;23.372;2023-04-24T11:21:30;4.75;;;4.03;;
69369;SDS011;56530;42.640;23.372;2023-04-24T11:23:57;5.82;;;3.70;;
69369;SDS011;56530;42.640;23.372;2023-04-24T11:26:22;5.63;;;4.93;;
69369;SDS011;56530;42.640;23.372;2023-04-24T11:28:55;7.15;;;4.22;;
69369;SDS011;56530;42.640;23.372;2023-04-24T11:31:35;6.20;;;4.60;;
69369;SDS011;56530;42.640;23.372;2023-04-24T11:34:06;7.13;;;4.75;;
69369;SDS011;56530;42.640;23.372;2023-04-24T11:36:35;9.55;;;4.55;;
69369;SDS011;56530;42.640;23.372;2023-04-24T11:39:01;6.32;;;3.38;;
69369;SDS011;56530;42.640;23.372;2023-04-24T11:41:27;3.67;;;3.17;;
69369;SDS011;56530;42.640;23.372;2023-04-24T11:43:53;6.00;;;3.00;;
69369;SDS011;56530;42.640;23.372;2023-04-24T11:46:20;4.35;;;3.35;;
69369;SDS011;56530;42.640;23.372;2023-04-24T11:48:46;6.20;;;3.42;;
69369;SDS011;56530;42.640;23.372;2023-04-24T11:51:12;3.80;;;3.35;;
69369;SDS011;56530;42.640;23.372;2023-04-24T11:53:38;6.90;;;3.30;;
69369;SDS011;56530;42.640;23.372;2023-04-24T11:56:04;3.75;;;3.45;;
69369;SDS011;56530;42.640;23.372;2023-04-24T11:58:34;3.20;;;3.00;;
69369;SDS011;56530;42.640;23.372;2023-04-24T12:01:00;4.38;;;2.92;;
69369;SDS011;56530;42.640;23.372;2023-04-24T12:03:26;3.33;;;3.13;;
69369;SDS011;56530;42.640;23.372;2023-04-24T12:05:51;4.13;;;3.72;;
69369;SDS011;56530;42.640;23.372;2023-04-24T12:08:35;3.33;;;3.00;;
69369;SDS011;56530;42.640;23.372;2023-04-24T12:11:01;3.88;;;3.40;;
69369;SDS011;56530;42.640;23.372;2023-04-24T12:13:27;4.28;;;3.33;;
69369;SDS011;56530;42.640;23.372;2023-04-24T12:15:53;4.68;;;3.55;;
69369;SDS011;56530;42.640;23.372;2023-04-24T12:18:18;4.87;;;3.70;;
69369;SDS011;56530;42.640;23.372;2023-04-24T12:20:47;5.53;;;3.90;;
69369;SDS011;56530;42.640;23.372;2023-04-24T12:23:13;4.07;;;3.78;;
69369;SDS011;56530;42.640;23.372;2023-04-24T12:25:38;3.78;;;3.10;;
69369;SDS011;56530;42.640;23.372;2023-04-24T12:30:33;4.63;;;3.72;;
69369;SDS011;56530;42.640;23.372;2023-04-24T12:33:00;7.93;;;3.50;;
69369;SDS011;56530;42.640;23.372;2023-04-24T12:35:28;7.68;;;3.22;;
69369;SDS011;56530;42.640;23.372;2023-04-24T12:37:54;8.25;;;3.70;;
69369;SDS011;56530;42.640;23.372;2023-04-24T12:40:20;4.10;;;3.53;;
69369;SDS011;56530;42.640;23.372;2023-04-24T12:42:47;5.78;;;3.17;;
69369;SDS011;56530;42.640;23.372;2023-04-24T12:45:14;3.03;;;2.78;;
69369;SDS011;56530;42.640;23.372;2023-04-24T12:47:41;4.63;;;3.22;;
69369;SDS011;56530;42.640;23.372;2023-04-24T12:50:08;6.20;;;3.53;;
69369;SDS011;56530;42.640;23.372;2023-04-24T12:52:34;4.10;;;2.97;;
69369;SDS011;56530;42.640;23.372;2023-04-24T12:55:00;3.55;;;2.83;;
69369;SDS011;56530;42.640;23.372;2023-04-24T12:57:27;5.35;;;3.70;;
69369;SDS011;56530;42.640;23.372;2023-04-24T12:59:54;3.90;;;3.60;;
69369;SDS011;56530;42.640;23.372;2023-04-24T13:02:21;9.68;;;3.67;;
69369;SDS011;56530;42.640;23.372;2023-04-24T13:04:47;5.32;;;3.30;;
69369;SDS011;56530;42.640;23.372;2023-04-24T13:07:13;7.03;;;4.03;;
69369;SDS011;56530;42.640;23.372;2023-04-24T13:09:39;4.03;;;3.50;;
69369;SDS011;56530;42.640;23.372;2023-04-24T13:12:06;6.68;;;4.18;;
69369;SDS011;56530;42.640;23.372;2023-04-24T13:14:32;4.47;;;4.13;;
69369;SDS011;56530;42.640;23.372;2023-04-24T13:16:57;4.35;;;3.95;;
69369;SDS011;56530;42.640;23.372;2023-04-24T13:19:26;8.90;;;4.05;;
69369;SDS011;56530;42.640;23.372;2023-04-24T13:21:52;5.63;;;4.10;;
69369;SDS011;56530;42.640;23.372;2023-04-24T13:24:18;4.18;;;3.70;;
69369;SDS011;56530;42.640;23.372;2023-04-24T13:26:44;4.30;;;3.95;;
69369;SDS011;56530;42.640;23.372;2023-04-24T13:29:09;5.03;;;4.00;;
69369;SDS011;56530;42.640;23.372;2023-04-24T13:31:35;7.35;;;4.10;;
69369;SDS011;56530;42.640;23.372;2023-04-24T13:34:01;7.97;;;4.57;;
69369;SDS011;56530;42.640;23.372;2023-04-24T13:36:27;9.75;;;3.83;;
69369;SDS011;56530;42.640;23.372;2023-04-24T13:38:53;9.65;;;4.20;;
69369;SDS011;56530;42.640;23.372;2023-04-24T13:41:18;5.55;;;3.83;;
69369;SDS011;56530;42.640;23.372;2023-04-24T13:43:44;3.90;;;3.60;;
69369;SDS011;56530;42.640;23.372;2023-04-24T13:46:09;4.45;;;4.05;;
69369;SDS011;56530;42.640;23.372;2023-04-24T13:48:35;4.45;;;4.05;;
69369;SDS011;56530;42.640;23.372;2023-04-24T13:51:00;6.38;;;3.85;;
69369;SDS011;56530;42.640;23.372;2023-04-24T13:53:25;6.45;;;3.90;;
69369;SDS011;56530;42.640;23.372;2023-04-24T13:55:51;6.03;;;4.28;;
69369;SDS011;56530;42.640;23.372;2023-04-24T13:58:16;4.30;;;3.03;;
69369;SDS011;56530;42.640;23.372;2023-04-24T14:00:42;4.28;;;3.88;;
69369;SDS011;56530;42.640;23.372;2023-04-24T14:03:07;4.68;;;3.75;;
69369;SDS011;56530;42.640;23.372;2023-04-24T14:05:33;7.15;;;4.20;;
69369;SDS011;56530;42.640;23.372;2023-04-24T14:07:58;6.15;;;4.15;;
69369;SDS011;56530;42.640;23.372;2023-04-24T14:10:23;7.68;;;4.28;;
69369;SDS011;56530;42.640;23.372;2023-04-24T14:12:49;6.63;;;4.10;;
69369;SDS011;56530;42.640;23.372;2023-04-24T14:15:15;5.88;;;4.22;;
69369;SDS011;56530;42.640;23.372;2023-04-24T14:17:41;8.15;;;3.97;;
69369;SDS011;56530;42.640;23.372;2023-04-24T14:20:07;5.72;;;3.92;;
69369;SDS011;56530;42.640;23.372;2023-04-24T14:22:33;7.13;;;3.78;;
69369;SDS011;56530;42.640;23.372;2023-04-24T14:24:59;7.78;;;4.20;;
69369;SDS011;56530;42.640;23.372;2023-04-24T14:27:24;3.53;;;3.22;;
69369;SDS011;56530;42.640;23.372;2023-04-24T14:29:51;3.15;;;2.95;;
69369;SDS011;56530;42.640;23.372;2023-04-24T14:32:16;6.32;;;3.63;;
69369;SDS011;56530;42.640;23.372;2023-04-24T14:34:42;7.15;;;3.67;;
69369;SDS011;56530;42.640;23.372;2023-04-24T14:37:07;3.95;;;3.58;;